Time;durP1;ratioP1;P1;durP2;ratioP2;P2;SDS_P1;SDS_P2;PMS_P1;PMS_P2;Temp;Humidity;BMP_temperature;BMP_pressure;BME280_temperature;BME280_humidity;BME280_pressure;Samples;Min_cycle;Max_cycle;Signal;HPM_P1;HPM_P2
2021/03/15 00:00:08;;;;;;;27.17;19.67;;;;;;;11.34;74.25;93710.00;6220311;23;20409;-82
2021/03/15 00:02:34;;;;;;;36.17;23.10;;;;;;;11.17;73.83;93713.56;6193448;23;20463;-81
2021/03/15 00:05:01;;;;;;;34.90;22.83;;;;;;;11.17;76.44;93701.25;6217489;23;20402;-82
2021/03/15 00:07:27;;;;;;;34.47;21.70;;;;;;;11.15;77.67;93691.91;6217586;23;20404;-82
2021/03/15 00:09:54;;;;;;;40.23;23.50;;;;;;;11.15;78.03;93694.53;6222562;23;20428;-83
2021/03/15 00:12:21;;;;;;;39.10;25.00;;;;;;;11.13;78.04;93684.19;6225604;23;20397;-81
2021/03/15 00:14:48;;;;;;;37.67;25.57;;;;;;;11.11;78.39;93694.03;6219808;23;20410;-82
2021/03/15 00:17:14;;;;;;;40.50;27.70;;;;;;;11.11;78.94;93686.16;6216488;23;20405;-83
2021/03/15 00:19:41;;;;;;;34.93;24.37;;;;;;;11.07;79.35;93679.59;6216041;23;20427;-83
2021/03/15 00:22:07;;;;;;;34.60;24.20;;;;;;;11.03;78.78;93680.91;6216371;23;20713;-83
2021/03/15 00:24:33;;;;;;;33.37;23.23;;;;;;;11.04;79.53;93677.31;6164197;23;20408;-81
2021/03/15 00:27:00;;;;;;;35.80;21.03;;;;;;;11.02;79.57;93668.78;6215944;23;20528;-80
2021/03/15 00:29:26;;;;;;;31.20;21.47;;;;;;;10.99;79.88;93671.72;6216184;23;20453;-82
2021/03/15 00:31:53;;;;;;;31.10;21.00;;;;;;;10.96;80.07;93668.59;6216739;23;20403;-80
2021/03/15 00:34:20;;;;;;;29.20;21.03;;;;;;;10.98;80.96;93682.38;6215784;23;20897;-82
2021/03/15 00:36:46;;;;;;;29.60;20.03;;;;;;;10.86;80.86;93668.75;6216765;23;20397;-81
2021/03/15 00:39:13;;;;;;;34.17;23.10;;;;;;;10.78;81.58;93660.88;6164262;23;20413;-82
2021/03/15 00:41:39;;;;;;;36.93;22.47;;;;;;;10.58;82.77;93670.00;6216013;23;20420;-81
2021/03/15 00:44:07;;;;;;;42.97;24.70;;;;;;;10.59;82.71;93655.91;6216306;23;20407;-82
2021/03/15 00:46:33;;;;;;;36.40;21.47;;;;;;;10.61;83.80;93649.50;6216589;23;20428;-81
2021/03/15 00:49:00;;;;;;;28.80;22.67;;;;;;;10.63;83.41;93651.97;6216192;23;20543;-82
2021/03/15 00:51:27;;;;;;;33.37;23.13;;;;;;;10.61;83.63;93653.94;6215838;23;20401;-81
2021/03/15 00:53:53;;;;;;;38.20;21.77;;;;;;;10.23;84.90;93641.22;6216789;23;20387;-81
2021/03/15 00:56:19;;;;;;;28.87;19.67;;;;;;;10.32;83.76;93652.53;6164178;23;20725;-82
2021/03/15 00:58:46;;;;;;;29.20;19.90;;;;;;;10.40;83.87;93657.81;6216367;23;20487;-81
2021/03/15 01:01:15;;;;;;;31.40;20.13;;;;;;;10.48;82.85;93646.53;6216724;23;20411;-82
2021/03/15 01:03:41;;;;;;;32.03;20.87;;;;;;;10.47;83.47;93634.41;6188684;23;20404;-81
2021/03/15 01:06:11;;;;;;;29.57;20.67;;;;;;;10.53;83.02;93642.44;6217573;23;20881;-82
2021/03/15 01:08:37;;;;;;;30.90;20.30;;;;;;;10.50;83.88;93642.78;6218598;23;20404;-82
2021/03/15 01:11:04;;;;;;;37.70;22.30;;;;;;;10.53;83.53;93626.72;6166528;23;20408;-81
2021/03/15 01:13:30;;;;;;;38.73;22.33;;;;;;;10.58;83.41;93630.66;6217871;23;20479;-81
2021/03/15 01:15:56;;;;;;;41.20;24.80;;;;;;;10.61;84.00;93619.84;6217540;23;20404;-82
2021/03/15 01:18:23;;;;;;;40.77;23.73;;;;;;;10.66;83.56;93614.91;6218080;23;20531;-82
2021/03/15 01:20:50;;;;;;;32.63;23.27;;;;;;;10.70;84.07;93603.97;6217749;23;20411;-81
2021/03/15 01:23:17;;;;;;;32.03;22.93;;;;;;;10.75;83.37;93591.16;6217526;23;20891;-81
2021/03/15 01:25:44;;;;;;;32.00;21.57;;;;;;;10.80;82.84;93591.50;6217623;23;20440;-81
2021/03/15 01:28:13;;;;;;;36.83;23.20;;;;;;;10.84;83.71;93603.31;6165510;23;20405;-81
2021/03/15 01:30:40;;;;;;;37.87;25.43;;;;;;;10.84;84.12;93602.47;6218105;23;20796;-82
2021/03/15 01:33:07;;;;;;;34.80;22.40;;;;;;;10.83;84.48;93585.91;6217929;23;20439;-81
2021/03/15 01:35:35;;;;;;;26.93;19.60;;;;;;;10.85;83.65;93568.22;6217413;23;20428;-82
2021/03/15 01:38:03;;;;;;;26.87;20.03;;;;;;;10.57;84.75;93573.94;6217897;23;20408;-81
2021/03/15 01:40:30;;;;;;;31.27;20.60;;;;;;;10.62;84.73;93569.81;6217714;23;20448;-81
2021/03/15 01:42:56;;;;;;;31.57;22.40;;;;;;;10.61;84.68;93554.25;6218087;23;20392;-82
2021/03/15 01:45:23;;;;;;;33.67;21.10;;;;;;;10.67;85.10;93559.66;6217937;23;20410;-82
2021/03/15 01:47:49;;;;;;;32.63;22.30;;;;;;;10.71;85.78;93560.19;6189972;23;20409;-82
2021/03/15 01:50:19;;;;;;;28.07;21.90;;;;;;;10.72;84.83;93549.53;6216965;23;20531;-82
2021/03/15 01:52:47;;;;;;;29.80;22.17;;;;;;;10.76;84.67;93544.75;6189851;23;20413;-82
2021/03/15 01:55:16;;;;;;;29.20;20.77;;;;;;;10.80;84.86;93535.56;6217149;23;20400;-81
2021/03/15 01:57:45;;;;;;;33.87;22.37;;;;;;;10.82;84.89;93541.47;6217179;23;20458;-82
2021/03/15 02:00:14;;;;;;;35.40;21.80;;;;;;;10.84;83.49;93544.75;6217371;23;20681;-82
2021/03/15 02:02:46;;;;;;;31.67;19.67;;;;;;;10.85;83.34;93541.16;6217294;23;20420;-81
2021/03/15 02:05:13;;;;;;;26.47;19.50;;;;;;;10.86;82.27;93532.28;6217434;23;20740;-81
2021/03/15 02:07:40;;;;;;;28.20;19.80;;;;;;;10.90;81.92;93524.91;6217526;23;20409;-81
2021/03/15 02:10:07;;;;;;;30.73;19.33;;;;;;;10.93;82.37;93519.31;6217617;23;20501;-82
2021/03/15 02:12:56;;;;;;;27.53;18.87;;;;;;;10.94;81.88;93513.91;6216914;23;20466;-82
2021/03/15 02:15:33;;;;;;;30.10;18.40;;;;;;;10.86;81.38;93514.75;6216509;23;20416;-82
2021/03/15 02:18:08;;;;;;;24.40;19.40;;;;;;;10.95;81.32;93514.72;6217557;23;20404;-81
2021/03/15 02:21:10;;;;;;;29.60;19.93;;;;;;;11.05;81.90;93510.13;6189462;23;20409;-82
2021/03/15 02:23:44;;;;;;;29.03;20.80;;;;;;;11.09;81.24;93501.75;6076456;23;20426;-82
2021/03/15 02:26:34;;;;;;;31.57;20.93;;;;;;;11.15;81.65;93495.81;6124671;23;20437;-81
2021/03/15 02:29:36;;;;;;;25.20;17.70;;;;;;;11.17;81.04;93493.84;6124954;23;20448;-82
2021/03/15 02:32:17;;;;;;;31.47;20.17;;;;;;;11.24;80.91;93490.53;6125348;23;20399;-82
2021/03/15 02:35:00;;;;;;;33.17;19.80;;;;;;;11.24;80.48;93493.16;6125620;23;20407;-80
2021/03/15 02:37:31;;;;;;;26.53;17.50;;;;;;;11.21;79.43;93483.00;6125126;23;20757;-82
2021/03/15 02:40:04;;;;;;;21.10;17.53;;;;;;;11.15;78.32;93476.63;6125275;23;20411;-81
2021/03/15 02:42:31;;;;;;;33.47;18.90;;;;;;;11.14;78.17;93483.69;6124694;23;20401;-82
2021/03/15 02:45:01;;;;;;;31.30;19.67;;;;;;;11.13;77.15;93487.28;6100552;23;20423;-81
2021/03/15 02:47:29;;;;;;;27.03;18.63;;;;;;;11.12;77.91;93485.66;6100778;23;20472;-82
2021/03/15 02:50:01;;;;;;;31.73;20.07;;;;;;;11.11;78.05;93477.97;6124613;23;20451;-82
2021/03/15 02:52:30;;;;;;;24.63;18.37;;;;;;;11.01;77.53;93482.59;6124649;23;20412;-81
2021/03/15 02:54:59;;;;;;;25.37;18.40;;;;;;;11.02;77.26;93473.72;6125317;23;20490;-82
2021/03/15 02:57:29;;;;;;;28.10;19.57;;;;;;;11.05;77.53;93468.94;6124997;23;20407;-81
2021/03/15 02:59:57;;;;;;;27.03;19.13;;;;;;;11.06;78.17;93469.78;6153105;23;20406;-81
2021/03/15 03:02:24;;;;;;;27.13;21.40;;;;;;;11.06;78.03;93469.78;6189785;23;20402;-82
2021/03/15 03:04:52;;;;;;;26.53;19.83;;;;;;;11.07;77.66;93466.16;6216754;23;20877;-82
2021/03/15 03:07:22;;;;;;;28.90;20.10;;;;;;;11.07;77.55;93466.16;6217243;23;20718;-82
2021/03/15 03:09:49;;;;;;;30.37;21.77;;;;;;;11.09;76.79;93453.69;6216692;23;20766;-82
2021/03/15 03:12:18;;;;;;;27.80;21.80;;;;;;;11.10;76.91;93452.69;6216471;23;20436;-82
2021/03/15 03:14:47;;;;;;;31.53;21.50;;;;;;;11.09;77.39;93453.69;6189325;23;20463;-82
2021/03/15 03:17:13;;;;;;;29.87;20.03;;;;;;;11.01;77.19;93448.47;6216491;23;20391;-82
2021/03/15 03:19:42;;;;;;;29.90;21.13;;;;;;;10.98;76.69;93456.66;6216809;23;20398;-82
2021/03/15 03:22:10;;;;;;;26.50;20.17;;;;;;;10.94;75.82;93445.66;6189263;23;20466;-82
2021/03/15 03:24:40;;;;;;;34.60;22.83;;;;;;;10.86;76.76;93443.88;6217116;23;20408;-82
2021/03/15 03:27:09;;;;;;;28.37;21.40;;;;;;;10.83;76.95;93453.91;6215906;23;20441;-81
2021/03/15 03:29:37;;;;;;;32.10;22.27;;;;;;;10.82;77.10;93447.00;6216443;23;20446;-82
2021/03/15 03:32:04;;;;;;;35.57;21.80;;;;;;;10.81;77.77;93450.63;6216503;23;20415;-82
2021/03/15 03:34:31;;;;;;;32.37;20.50;;;;;;;10.79;77.18;93445.53;6216051;23;20460;-82
2021/03/15 03:36:57;;;;;;;28.93;22.23;;;;;;;10.84;76.66;93445.03;6217109;23;20428;-82
2021/03/15 03:39:23;;;;;;;29.50;20.80;;;;;;;10.85;77.05;93441.44;6216532;23;20410;-81
2021/03/15 03:41:51;;;;;;;36.67;22.50;;;;;;;10.81;77.26;93430.44;6216368;23;20953;-83
2021/03/15 03:44:18;;;;;;;34.90;22.50;;;;;;;10.82;77.34;93431.28;6216468;23;20404;-83
2021/03/15 03:46:45;;;;;;;27.33;21.10;;;;;;;10.79;78.93;93423.72;6216504;23;20401;-81
2021/03/15 03:49:12;;;;;;;35.60;22.40;;;;;;;10.78;78.64;93422.09;6216781;23;20445;-81
2021/03/15 03:51:42;;;;;;;33.47;21.67;;;;;;;10.76;78.63;93419.66;6216105;23;20414;-82
2021/03/15 03:54:13;;;;;;;26.27;20.50;;;;;;;10.82;79.00;93432.09;6216626;23;20390;-82
2021/03/15 03:56:45;;;;;;;30.47;22.00;;;;;;;10.79;78.85;93424.56;6216243;23;20435;-82
2021/03/15 03:59:16;;;;;;;35.97;23.13;;;;;;;10.82;78.88;93434.72;6216720;23;20404;-82
2021/03/15 04:01:47;;;;;;;30.97;21.53;;;;;;;10.78;78.37;93432.59;6216382;23;20425;-82
2021/03/15 04:04:18;;;;;;;35.73;21.73;;;;;;;10.59;79.12;93420.66;6216113;23;20409;-82
2021/03/15 04:06:46;;;;;;;34.03;21.37;;;;;;;10.61;78.99;93410.81;6216042;23;20396;-82
2021/03/15 04:09:14;;;;;;;35.57;21.97;;;;;;;10.63;78.96;93400.97;6188885;23;20448;-82
2021/03/15 04:11:46;;;;;;;31.17;22.83;;;;;;;10.63;78.88;93394.91;6216212;23;20415;-82
2021/03/15 04:14:17;;;;;;;27.07;21.20;;;;;;;10.61;79.03;93396.88;6216186;23;20446;-81
2021/03/15 04:16:45;;;;;;;26.33;21.10;;;;;;;10.63;79.39;93387.03;6215901;23;20897;-82
2021/03/15 04:19:12;;;;;;;34.87;23.27;;;;;;;10.57;79.46;93380.66;6216198;23;20413;-82
2021/03/15 04:21:41;;;;;;;32.50;22.40;;;;;;;10.57;79.03;93378.03;6216098;23;20411;-82
2021/03/15 04:24:10;;;;;;;38.03;21.80;;;;;;;10.54;78.63;93384.44;6216517;23;20401;-82
2021/03/15 04:26:38;;;;;;;32.07;23.60;;;;;;;10.50;78.46;93388.38;6216302;23;20482;-82
2021/03/15 04:29:07;;;;;;;44.97;25.23;;;;;;;10.46;79.35;93376.59;6164466;23;20413;-82
2021/03/15 04:31:36;;;;;;;36.33;22.70;;;;;;;10.42;79.40;93377.09;6215994;23;20487;-81
2021/03/15 04:34:03;;;;;;;36.67;27.33;;;;;;;10.42;79.47;93372.66;6214553;23;20408;-79
2021/03/15 04:36:31;;;;;;;40.47;27.00;;;;;;;10.40;79.53;93377.22;6216082;23;20442;-82
2021/03/15 04:38:58;;;;;;;38.50;24.07;;;;;;;10.31;79.08;93369.53;6217173;23;20411;-82
2021/03/15 04:41:25;;;;;;;37.73;26.47;;;;;;;10.17;80.09;93377.06;6218313;23;20398;-82
2021/03/15 04:43:52;;;;;;;34.93;23.90;;;;;;;10.14;80.13;93369.53;6218074;23;20403;-82
2021/03/15 04:46:21;;;;;;;37.00;23.77;;;;;;;10.15;80.68;93375.59;6217991;23;20414;-83
2021/03/15 04:48:48;;;;;;;37.40;24.97;;;;;;;10.12;79.77;93375.91;6218363;23;20876;-83
2021/03/15 04:51:18;;;;;;;39.50;24.07;;;;;;;10.13;79.64;93372.34;6218011;23;20434;-83
2021/03/15 04:53:45;;;;;;;34.87;25.30;;;;;;;10.11;79.75;93363.78;6191447;23;21314;-83
2021/03/15 04:56:14;;;;;;;35.90;25.70;;;;;;;10.11;79.93;93367.22;6218544;23;20808;-83
2021/03/15 04:58:43;;;;;;;33.73;24.10;;;;;;;10.10;80.60;93370.84;6218467;23;20734;-83
2021/03/15 05:01:10;;;;;;;38.42;28.20;;;;;;;10.18;80.70;93364.78;6217343;23;20390;-85
2021/03/15 05:03:38;;;;;;;39.00;24.80;;;;;;;10.22;79.90;93355.63;6218663;23;20161;-85
2021/03/15 05:06:08;;;;;;;33.63;22.93;;;;;;;10.22;80.04;93358.25;6218442;23;20393;-84
2021/03/15 05:08:40;;;;;;;38.77;25.00;;;;;;;10.19;79.86;93358.56;6218373;23;20423;-83
2021/03/15 05:11:09;;;;;;;35.00;23.90;;;;;;;10.20;80.76;93357.56;6219221;23;20482;-84
2021/03/15 05:13:38;;;;;;;30.20;22.80;;;;;;;10.17;80.93;93353.50;6219183;23;20751;-85
2021/03/15 05:16:06;;;;;;;48.40;34.23;;;;;;;10.17;81.42;93355.28;6219021;23;20925;-83
2021/03/15 05:18:34;;;;;;;49.80;32.40;;;;;;;10.19;81.58;93351.50;6218353;23;20744;-83
2021/03/15 05:21:01;;;;;;;42.77;30.33;;;;;;;10.26;81.68;93346.47;6191182;23;20399;-84
2021/03/15 05:23:30;;;;;;;45.33;28.77;;;;;;;10.35;81.74;93342.81;6218467;23;20400;-83
2021/03/15 05:25:56;;;;;;;39.70;26.80;;;;;;;10.36;81.98;93341.03;6218009;23;21015;-83
2021/03/15 05:28:24;;;;;;;42.10;29.13;;;;;;;10.41;81.42;93346.59;6167047;23;20391;-83
2021/03/15 05:30:51;;;;;;;40.20;27.80;;;;;;;10.48;81.67;93340.53;6218205;23;20461;-84
2021/03/15 05:33:23;;;;;;;47.47;31.10;;;;;;;10.52;81.93;93344.44;6219441;23;20397;-84
2021/03/15 05:35:52;;;;;;;42.30;29.97;;;;;;;10.58;81.75;93339.50;6218671;23;20451;-83
2021/03/15 05:38:19;;;;;;;80.70;44.17;;;;;;;10.55;81.89;93343.28;6166728;23;20408;-85
2021/03/15 05:40:48;;;;;;;50.10;34.07;;;;;;;10.46;82.71;93333.81;6218506;23;20401;-83
2021/03/15 05:43:29;;;;;;;49.07;32.17;;;;;;;10.25;83.51;93336.94;6191231;23;20401;-84
2021/03/15 05:46:08;;;;;;;54.53;35.23;;;;;;;10.22;84.09;93332.03;6218902;23;20404;-85
2021/03/15 05:49:12;;;;;;;51.90;33.20;;;;;;;10.18;84.48;93333.34;6219831;23;20395;-85
2021/03/15 05:52:00;;;;;;;44.10;32.00;;;;;;;10.14;85.07;93324.16;6218724;23;20483;-86
2021/03/15 05:55:00;;;;;;;48.70;33.57;;;;;;;10.12;85.74;93333.97;6220713;23;20396;-86
2021/03/15 05:57:47;;;;;;;46.97;30.10;;;;;;;10.19;85.88;93334.97;6218543;23;20478;-84
2021/03/15 06:00:26;;;;;;;44.27;30.20;;;;;;;10.26;85.53;93345.63;6218997;23;20430;-86
2021/03/15 06:03:27;;;;;;;43.80;30.30;;;;;;;10.26;85.53;93346.47;6219051;23;20396;-85
2021/03/15 06:05:59;;;;;;;42.77;27.87;;;;;;;10.36;86.30;93341.84;6156035;23;20416;-85
2021/03/15 06:08:30;;;;;;;53.40;32.83;;;;;;;10.36;85.61;93336.59;6156792;23;20405;-84
2021/03/15 06:11:04;;;;;;;51.07;35.40;;;;;;;10.49;85.72;93336.91;6157477;23;20777;-84
2021/03/15 06:13:33;;;;;;;41.40;29.97;;;;;;;10.60;86.07;93345.41;6157451;23;20981;-84
2021/03/15 06:16:01;;;;;;;43.97;28.97;;;;;;;10.68;85.78;93333.06;6156048;23;20412;-84
2021/03/15 06:18:29;;;;;;;44.23;28.80;;;;;;;10.78;85.21;93336.34;6155780;23;20387;-83
2021/03/15 06:20:59;;;;;;;41.57;28.03;;;;;;;10.85;85.26;93332.03;6155380;23;20442;-80
2021/03/15 06:23:26;;;;;;;36.20;24.37;;;;;;;10.93;84.72;93328.56;6155045;23;20411;-83
2021/03/15 06:25:54;;;;;;;43.80;29.43;;;;;;;10.94;83.79;93327.56;6155401;23;20442;-78
2021/03/15 06:28:22;;;;;;;52.80;33.70;;;;;;;10.98;84.87;93326.22;6156096;23;20454;-83
2021/03/15 06:30:51;;;;;;;48.53;32.20;;;;;;;11.00;86.15;93326.09;6155732;23;20485;-84
2021/03/15 06:33:18;;;;;;;49.87;32.77;;;;;;;11.07;85.84;93334.91;6156170;23;20751;-83
2021/03/15 06:35:47;;;;;;;51.57;34.23;;;;;;;11.09;86.49;93333.75;6156205;23;20410;-83
2021/03/15 06:38:17;;;;;;;61.33;33.30;;;;;;;11.12;86.16;93336.03;6156268;23;20391;-86
2021/03/15 06:40:44;;;;;;;46.13;33.57;;;;;;;11.15;85.79;93326.97;6155786;23;20410;-86
2021/03/15 06:43:14;;;;;;;53.93;37.13;;;;;;;11.16;87.73;93324.19;6197467;23;20418;-87
2021/03/15 06:45:42;;;;;;;53.20;35.70;;;;;;;11.21;88.08;93325.47;6219063;23;20888;-87
2021/03/15 06:48:10;;;;;;;52.57;34.93;;;;;;;11.27;88.03;93330.03;6219479;23;20488;-86
2021/03/15 06:50:36;;;;;;;45.63;32.83;;;;;;;11.34;88.17;93323.13;6217736;23;20434;-84
2021/03/15 06:53:04;;;;;;;44.47;32.30;;;;;;;11.43;88.15;93328.16;6218230;23;20890;-86
2021/03/15 06:55:32;;;;;;;58.23;35.20;;;;;;;11.49;86.91;93326.63;6217918;23;20412;-85
2021/03/15 06:57:58;;;;;;;48.83;34.47;;;;;;;11.57;87.14;93329.22;6217970;23;20397;-81
2021/03/15 07:00:26;;;;;;;46.40;35.50;;;;;;;11.66;87.06;93324.72;6218957;23;20402;-85
2021/03/15 07:02:58;;;;;;;54.60;38.33;;;;;;;11.72;86.48;93316.94;6216692;23;20398;-86
2021/03/15 07:05:25;;;;;;;48.50;34.27;;;;;;;11.74;86.46;93314.13;6219853;23;20401;-82
2021/03/15 07:07:53;;;;;;;37.17;28.70;;;;;;;11.79;86.34;93310.03;6218040;23;20479;-85
2021/03/15 07:10:22;;;;;;;46.03;30.73;;;;;;;11.89;85.87;93306.34;6218252;23;20441;-86
2021/03/15 07:12:49;;;;;;;46.90;32.07;;;;;;;11.96;85.99;93299.38;6217924;23;20397;-85
2021/03/15 07:15:17;;;;;;;40.67;28.93;;;;;;;11.93;84.18;93303.19;6217705;23;20419;-87
2021/03/15 07:17:43;;;;;;;32.27;24.33;;;;;;;11.98;84.02;93307.91;6217434;23;20406;-86
2021/03/15 07:20:10;;;;;;;45.53;30.30;;;;;;;11.97;82.93;93291.31;6216582;23;20443;-87
2021/03/15 07:22:45;;;;;;;46.07;29.03;;;;;;;12.03;82.16;93297.69;6217861;23;20397;-88
2021/03/15 07:25:14;;;;;;;46.70;32.13;;;;;;;12.01;81.78;93289.16;6217910;23;20516;-87
2021/03/15 07:27:42;;;;;;;44.47;31.93;;;;;;;12.09;82.10;93289.88;6217530;23;20386;-86
2021/03/15 07:30:27;;;;;;;28.93;21.37;;;;;;;12.14;78.67;93288.53;6217436;23;20845;-86
2021/03/15 07:32:55;;;;;;;28.03;19.60;;;;;;;12.16;77.81;93290.00;6217770;23;20878;-86
2021/03/15 07:35:23;;;;;;;28.13;20.10;;;;;;;12.21;77.40;93290.28;6165947;23;20409;-87
2021/03/15 07:37:50;;;;;;;31.90;19.90;;;;;;;12.28;77.08;93295.63;6216957;23;20394;-83
2021/03/15 07:40:32;;;;;;;39.73;26.63;;;;;;;12.27;77.55;93286.94;6216648;23;20493;-83
2021/03/15 07:43:00;;;;;;;33.87;22.13;;;;;;;12.25;79.06;93281.03;6217335;23;20398;-83
2021/03/15 07:45:38;;;;;;;35.60;23.50;;;;;;;12.24;79.70;93276.78;6216557;23;20767;-83
2021/03/15 07:48:10;;;;;;;28.30;20.10;;;;;;;12.24;79.70;93271.50;6215010;23;20402;-83
2021/03/15 07:50:37;;;;;;;28.17;20.83;;;;;;;12.31;79.25;93274.25;6215338;23;20442;-83
2021/03/15 07:53:05;;;;;;;43.73;23.57;;;;;;;12.34;78.81;93265.97;6216037;23;20885;-83
2021/03/15 07:55:37;;;;;;;32.87;22.17;;;;;;;12.40;77.78;93270.50;6215619;23;20790;-83
2021/03/15 07:58:25;;;;;;;34.97;23.50;;;;;;;12.46;79.00;93263.75;6215461;23;20441;-83
2021/03/15 08:00:53;;;;;;;34.85;24.83;;;;;;;12.54;79.07;93263.63;6217228;23;20414;-82
2021/03/15 08:03:20;;;;;;;37.50;24.10;;;;;;;12.60;79.46;93261.09;6218150;23;20175;-81
2021/03/15 08:05:48;;;;;;;33.07;22.80;;;;;;;12.67;78.54;93255.91;6217101;23;21164;-83
2021/03/15 08:08:15;;;;;;;33.17;23.63;;;;;;;12.77;78.76;93250.38;6217375;23;20429;-82
2021/03/15 08:10:42;;;;;;;37.57;25.77;;;;;;;12.79;78.45;93246.56;6221368;23;20422;-82
2021/03/15 08:13:11;;;;;;;35.93;21.93;;;;;;;12.85;78.06;93250.28;6222156;23;20395;-81
2021/03/15 08:15:38;;;;;;;51.83;28.00;;;;;;;12.84;77.90;93233.66;6218572;23;20398;-81
2021/03/15 08:18:09;;;;;;;29.57;21.87;;;;;;;12.93;76.78;93244.91;6219559;23;20395;-81
2021/03/15 08:20:42;;;;;;;41.30;21.73;;;;;;;12.99;76.08;93244.97;6167351;23;20493;-83
2021/03/15 08:23:09;;;;;;;33.03;20.90;;;;;;;13.03;75.53;93240.19;6219151;23;20401;-81
2021/03/15 08:25:37;;;;;;;24.80;19.50;;;;;;;13.10;75.74;93235.78;6219692;23;20446;-82
2021/03/15 08:28:06;;;;;;;27.87;18.90;;;;;;;13.12;74.19;93231.16;6218286;23;20395;-80
2021/03/15 08:30:36;;;;;;;27.03;17.13;;;;;;;13.18;73.73;93229.63;6217549;23;20469;-81
2021/03/15 08:33:03;;;;;;;24.00;18.50;;;;;;;13.25;71.98;93227.84;6218396;23;20462;-82
2021/03/15 08:35:30;;;;;;;26.43;16.63;;;;;;;13.32;72.90;93224.31;6217398;23;20398;-80
2021/03/15 08:37:59;;;;;;;21.00;16.70;;;;;;;13.40;72.05;93227.81;6217943;23;20548;-82
2021/03/15 08:40:55;;;;;;;26.40;17.70;;;;;;;13.51;71.01;93214.94;6217033;23;20391;-81
2021/03/15 08:43:46;;;;;;;21.43;16.70;;;;;;;13.55;70.04;93210.91;6219046;23;20395;-81
2021/03/15 08:46:16;;;;;;;21.70;16.63;;;;;;;13.62;69.52;93214.47;6187286;23;20575;-81
2021/03/15 08:49:02;;;;;;;23.20;17.00;;;;;;;13.69;69.41;93201.31;6111726;23;20459;-81
2021/03/15 08:51:49;;;;;;;24.43;17.50;;;;;;;13.78;68.84;93202.00;6184029;23;20447;-81
2021/03/15 08:54:18;;;;;;;27.93;17.57;;;;;;;13.83;69.14;93204.88;6185196;23;20395;-81
2021/03/15 09:00:35;;;;;;;23.20;17.37;;;;;;;13.89;68.03;93197.03;6182773;23;20259;-81
2021/03/15 09:03:01;;;;;;;29.67;16.53;;;;;;;13.90;66.95;93195.22;6183619;23;20444;-81
2021/03/15 09:05:29;;;;;;;24.23;16.80;;;;;;;13.91;66.76;93181.03;6111802;23;20401;-81
2021/03/15 09:07:56;;;;;;;23.87;17.00;;;;;;;13.95;66.62;93174.34;6185144;23;20407;-82
2021/03/15 09:10:44;;;;;;;23.20;17.27;;;;;;;14.02;67.31;93166.47;6184201;23;20442;-81
2021/03/15 09:13:25;;;;;;;34.47;20.08;;;;;;;14.12;67.94;93159.84;6184443;23;20474;-79
2021/03/15 09:15:58;;;;;;;30.15;19.70;;;;;;;14.18;65.97;93166.19;6183501;23;20474;-81
2021/03/15 09:18:51;;;;;;;27.40;18.00;;;;;;;14.15;65.46;93154.16;6185710;23;20172;-86
2021/03/15 09:21:52;;;;;;;34.40;23.17;;;;;;;14.14;66.96;93155.19;6186131;23;20392;-87
2021/03/15 09:24:40;;;;;;;36.40;19.80;;;;;;;14.20;67.13;93149.16;6118307;23;20408;-88
2021/03/15 09:27:07;;;;;;;20.73;15.93;;;;;;;14.24;66.01;93149.56;6040291;23;20533;-87
2021/03/15 09:29:35;;;;;;;22.93;16.23;;;;;;;14.23;65.49;93146.13;5993278;23;20731;-85
2021/03/15 09:32:04;;;;;;;26.00;16.80;;;;;;;14.20;65.29;93138.59;6040394;23;20426;-85
2021/03/15 09:34:31;;;;;;;36.80;18.77;;;;;;;14.21;65.59;93144.69;6042608;23;20419;-87
2021/03/15 09:36:59;;;;;;;27.50;18.90;;;;;;;14.23;64.88;93137.41;6041921;23;20411;-88
2021/03/15 09:39:28;;;;;;;26.00;18.27;;;;;;;14.23;66.10;93129.47;6042159;23;20405;-87
2021/03/15 09:41:54;;;;;;;28.20;19.00;;;;;;;14.27;65.86;93126.25;6042269;23;20419;-87
2021/03/15 09:44:25;;;;;;;23.77;18.33;;;;;;;14.29;65.36;93119.97;6043627;23;20404;-86
2021/03/15 09:46:52;;;;;;;26.90;19.40;;;;;;;14.30;65.66;93108.41;6049002;23;20412;-87
2021/03/15 09:49:37;;;;;;;28.90;18.63;;;;;;;14.33;65.23;93108.00;6049978;23;20417;-88
2021/03/15 09:52:14;;;;;;;23.60;17.63;;;;;;;14.24;63.47;93107.38;6044327;23;20426;-87
2021/03/15 09:54:43;;;;;;;26.47;16.13;;;;;;;14.04;63.33;93107.25;6042244;23;20474;-88
2021/03/15 09:57:10;;;;;;;26.17;18.37;;;;;;;14.10;63.97;93088.00;5997620;23;20780;-88
2021/03/15 09:59:37;;;;;;;19.80;14.13;;;;;;;14.12;63.44;93093.09;6158412;23;20451;-88
2021/03/15 10:02:03;;;;;;;19.10;15.07;;;;;;;14.21;64.20;93095.38;6157691;23;20393;-87
2021/03/15 10:04:33;;;;;;;37.90;14.27;;;;;;;14.30;64.13;93084.66;6197869;23;20402;-88
2021/03/15 10:07:01;;;;;;;21.27;14.27;;;;;;;14.29;61.96;93080.38;6169191;23;20418;-87
2021/03/15 10:09:29;;;;;;;22.80;15.07;;;;;;;14.31;62.88;93073.91;6221126;23;20760;-88
2021/03/15 10:11:56;;;;;;;21.93;14.53;;;;;;;14.43;63.81;93074.16;6220368;23;20392;-88
2021/03/15 10:14:24;;;;;;;20.93;14.40;;;;;;;14.52;63.34;93068.53;6220345;23;20753;-88
2021/03/15 10:16:58;;;;;;;21.30;15.10;;;;;;;14.67;63.77;93065.72;6219880;23;20403;-89
2021/03/15 10:19:27;;;;;;;22.07;14.83;;;;;;;14.74;61.85;93069.19;6221525;23;20390;-87
2021/03/15 10:21:55;;;;;;;27.17;16.73;;;;;;;14.69;62.07;93061.03;6224193;23;20419;-86
2021/03/15 10:24:33;;;;;;;24.57;16.67;;;;;;;14.72;62.59;93062.47;6219486;23;20487;-89
2021/03/15 10:27:00;;;;;;;24.70;17.73;;;;;;;14.71;62.09;93066.13;6219075;23;20479;-87
2021/03/15 10:29:27;;;;;;;23.33;16.03;;;;;;;14.77;61.93;93047.69;6219112;23;20411;-88
2021/03/15 10:31:54;;;;;;;24.20;15.77;;;;;;;14.81;61.39;93054.19;6219645;23;20407;-90
2021/03/15 10:34:24;;;;;;;22.73;15.30;;;;;;;14.76;60.39;93037.31;6218885;23;20395;-88
2021/03/15 10:36:52;;;;;;;19.67;14.63;;;;;;;14.81;60.96;93046.25;6218799;23;20391;-88
2021/03/15 10:39:20;;;;;;;21.90;14.13;;;;;;;14.92;61.61;93041.38;6219560;23;20460;-87
2021/03/15 10:41:48;;;;;;;27.17;15.83;;;;;;;15.03;61.38;93040.78;6220048;23;20405;-88
2021/03/15 10:44:17;;;;;;;19.20;14.17;;;;;;;15.10;60.88;93025.78;6221820;23;20413;-89
2021/03/15 10:46:49;;;;;;;20.10;13.47;;;;;;;15.11;59.85;93025.56;6219449;23;20425;-89
2021/03/15 10:49:23;;;;;;;23.60;15.00;;;;;;;15.16;59.52;93017.03;6218635;23;20401;-88
2021/03/15 10:51:52;;;;;;;18.30;13.90;;;;;;;15.15;59.47;93015.41;6218967;23;20414;-88
2021/03/15 10:54:35;;;;;;;19.60;14.13;;;;;;;14.69;60.53;93005.59;6219281;23;20421;-88
2021/03/15 10:57:11;;;;;;;18.83;13.27;;;;;;;14.47;60.90;93001.53;6218818;23;20442;-88
2021/03/15 10:59:37;;;;;;;17.67;14.07;;;;;;;14.35;61.29;92993.34;6219096;23;20398;-89
2021/03/15 11:02:04;;;;;;;21.23;15.47;;;;;;;14.39;61.52;92991.09;6219155;23;20410;-89
2021/03/15 11:04:38;;;;;;;19.67;13.07;;;;;;;13.96;62.84;92999.31;6218396;23;20415;-87
2021/03/15 11:07:19;;;;;;;20.03;13.20;;;;;;;14.03;63.37;92983.50;6219281;23;20900;-86
2021/03/15 11:10:00;;;;;;;17.40;14.10;;;;;;;13.95;63.43;92973.94;6220047;23;20398;-87
2021/03/15 11:12:42;;;;;;;15.73;12.73;;;;;;;13.90;63.12;92971.91;6218851;23;20400;-88
2021/03/15 11:15:11;;;;;;;24.17;13.90;;;;;;;13.92;62.98;92963.78;6219403;23;20755;-88
2021/03/15 11:17:38;;;;;;;16.73;12.37;;;;;;;13.94;61.95;92956.50;6218684;23;20411;-88
2021/03/15 11:20:07;;;;;;;18.90;13.50;;;;;;;13.90;62.13;92958.72;6219046;23;20437;-88
2021/03/15 11:22:48;;;;;;;16.80;12.17;;;;;;;13.66;64.29;92953.16;6218148;23;20470;-87
2021/03/15 11:25:15;;;;;;;17.63;15.20;;;;;;;13.66;65.51;92946.03;6219212;23;20406;-89
2021/03/15 11:27:47;;;;;;;22.40;14.97;;;;;;;13.63;64.61;92941.97;6218511;23;20422;-89
2021/03/15 11:30:22;;;;;;;17.00;12.90;;;;;;;13.74;64.56;92939.78;6219200;23;20515;-88
2021/03/15 11:32:56;;;;;;;21.80;14.17;;;;;;;13.58;65.24;92928.56;6218526;23;20907;-89
2021/03/15 11:35:23;;;;;;;17.43;12.63;;;;;;;13.38;65.24;92930.31;6218681;23;20401;-89